Time;durP1;ratioP1;P1;durP2;ratioP2;P2;SDS_P1;SDS_P2;PMS_P1;PMS_P2;Temp;Humidity;BMP_temperature;BMP_pressure;BME280_temperature;BME280_humidity;BME280_pressure;Samples;Min_cycle;Max_cycle;Signal;HPM_P1;HPM_P2
2021/12/30 00:00:00;;;;;;;;;0.00;0.00;;;;;20.59;46.84;101142.63;5059342;28;45533;-54
2021/12/30 00:02:28;;;;;;;;;0.00;0.00;;;;;20.55;46.71;101140.16;5058859;28;46561;-54
2021/12/30 00:04:54;;;;;;;;;0.00;0.00;;;;;20.55;46.78;101141.94;5058995;28;45437;-55
2021/12/30 00:07:19;;;;;;;;;0.00;0.00;;;;;20.53;47.09;101141.16;5057933;28;45356;-55
2021/12/30 00:09:44;;;;;;;;;0.00;0.00;;;;;20.51;46.71;101148.28;5059001;28;45485;-54
2021/12/30 00:12:10;;;;;;;;;0.00;0.00;;;;;20.50;46.72;101146.56;5058809;28;46600;-54
2021/12/30 00:14:35;;;;;;;;;0.00;0.00;;;;;20.47;46.96;101141.44;5058708;28;45497;-54
2021/12/30 00:17:01;;;;;;;;;0.00;0.00;;;;;20.48;47.38;101153.69;5058792;28;45277;-54
2021/12/30 00:19:26;;;;;;;;;0.00;0.00;;;;;20.47;47.35;101152.84;5057709;28;45277;-55
2021/12/30 00:21:51;;;;;;;;;0.00;0.00;;;;;20.44;46.85;101149.53;5058823;28;46247;-54
2021/12/30 00:24:17;;;;;;;;;0.00;0.00;;;;;20.43;47.18;101145.19;5058598;28;45298;-53
2021/12/30 00:26:42;;;;;;;;;0.00;0.00;;;;;20.42;47.21;101148.75;5057353;28;45234;-55
2021/12/30 00:29:08;;;;;;;;;0.00;0.00;;;;;20.39;47.36;101141.84;5058735;28;45643;-55
2021/12/30 00:31:33;;;;;;;;;0.00;0.00;;;;;20.39;47.50;101147.13;5058353;28;46335;-56
2021/12/30 00:33:59;;;;;;;;;0.00;0.00;;;;;20.38;47.53;101148.06;5058595;28;45293;-53
2021/12/30 00:36:25;;;;;;;;;0.00;0.00;;;;;20.38;47.05;101148.88;5058696;28;45666;-56
2021/12/30 00:38:50;;;;;;;;;0.00;0.00;;;;;20.36;47.05;101153.38;5058983;28;45334;-54
2021/12/30 00:41:18;;;;;;;;;0.00;0.00;;;;;20.35;47.20;101151.66;5058349;28;45616;-56
2021/12/30 00:43:44;;;;;;;;;1.00;0.75;;;;;20.35;47.53;101154.28;5058202;28;45961;-55
2021/12/30 00:46:10;;;;;;;;;0.00;0.00;;;;;20.33;47.25;101150.91;5058514;28;45391;-54
2021/12/30 00:48:35;;;;;;;;;0.75;0.00;;;;;20.33;47.55;101155.31;5058447;28;45240;-55
2021/12/30 00:51:01;;;;;;;;;0.00;0.00;;;;;20.31;47.55;101158.03;5058129;28;46758;-56
2021/12/30 00:53:26;;;;;;;;;0.00;0.00;;;;;20.32;47.46;101166.75;5058097;28;45235;-54
2021/12/30 00:55:52;;;;;;;;;0.00;0.00;;;;;20.30;47.59;101163.34;5058564;28;45390;-56
2021/12/30 00:58:18;;;;;;;;;0.00;0.00;;;;;20.29;47.86;101172.16;5058257;28;45275;-55
2021/12/30 01:00:46;;;;;;;;;0.00;0.00;;;;;20.29;47.62;101175.66;5057941;28;46021;-55
2021/12/30 01:03:13;;;;;;;;;0.00;0.00;;;;;20.29;47.55;101180.94;5057778;28;45315;-55
2021/12/30 01:05:39;;;;;;;;;0.00;0.00;;;;;20.28;47.82;101179.22;5057015;28;45364;-56
2021/12/30 01:08:07;;;;;;;;;0.00;0.00;;;;;20.28;47.28;101186.28;5058044;28;45185;-56
2021/12/30 01:10:33;;;;;;;;;0.00;0.00;;;;;20.24;47.55;101189.06;5056375;28;47346;-54
2021/12/30 01:13:04;;;;;;;;;0.00;0.00;;;;;20.26;47.72;101193.41;5057714;28;45236;-53
2021/12/30 01:15:35;;;;;;;;;1.00;0.00;;;;;20.26;47.57;101190.75;5057759;28;45565;-55
2021/12/30 01:20:47;;;;;;;;;0.00;0.00;;;;;20.22;47.58;101201.44;5057526;28;45438;-56
2021/12/30 01:23:12;;;;;;;;;0.75;0.75;;;;;20.22;47.73;101216.38;5056215;28;45853;-54
2021/12/30 01:25:38;;;;;;;;;1.00;1.00;;;;;20.21;47.39;101218.16;5057597;28;45280;-53
2021/12/30 01:28:03;;;;;;;;;0.00;0.00;;;;;20.21;47.26;101220.78;5057880;28;45343;-54
2021/12/30 01:30:28;;;;;;;;;0.00;0.00;;;;;20.20;47.78;101218.22;5057379;28;46679;-54
2021/12/30 01:32:54;;;;;;;;;0.00;0.00;;;;;20.19;47.65;101219.16;5056628;28;45237;-54
2021/12/30 01:35:23;;;;;;;;;0.00;0.00;;;;;20.20;47.84;101224.34;5057580;28;45227;-55
2021/12/30 01:37:50;;;;;;;;;0.00;0.00;;;;;20.18;47.91;101226.19;5057167;28;45512;-53
2021/12/30 01:40:17;;;;;;;;;0.00;0.00;;;;;20.17;47.98;101228.91;5057325;28;46057;-55
2021/12/30 01:42:43;;;;;;;;;0.00;0.00;;;;;20.17;47.49;101232.41;5057347;28;45508;-54
2021/12/30 01:45:10;;;;;;;;;0.00;0.00;;;;;20.16;47.54;101235.09;5057435;28;45295;-56
2021/12/30 01:47:37;;;;;;;;;0.00;0.00;;;;;20.16;47.74;101237.72;5057521;28;45434;-55
2021/12/30 01:50:04;;;;;;;;;0.00;0.00;;;;;20.16;48.11;101237.72;5057008;28;46285;-54
2021/12/30 01:52:30;;;;;;;;;0.00;0.00;;;;;20.15;47.93;101241.28;5057065;28;45866;-56
2021/12/30 01:54:55;;;;;;;;;0.00;0.00;;;;;20.15;48.04;101243.91;5057668;28;45385;-57
2021/12/30 01:57:21;;;;;;;;;0.00;0.00;;;;;20.14;47.79;101240.44;5057491;28;45457;-55
2021/12/30 01:59:46;;;;;;;;;0.00;0.00;;;;;20.15;47.75;101246.53;5056965;28;45437;-56
2021/12/30 02:02:12;;;;;;;;;0.00;0.00;;;;;20.14;47.94;101248.31;5056959;28;45388;-55
2021/12/30 02:04:37;;;;;;;;;1.00;0.00;;;;;20.13;47.71;101249.25;5057177;28;45407;-56
2021/12/30 02:07:03;;;;;;;;;0.00;0.00;;;;;20.13;47.59;101246.63;5057013;28;45579;-55
2021/12/30 02:09:30;;;;;;;;;0.00;0.00;;;;;20.14;48.15;101247.47;5057154;28;45501;-56
2021/12/30 02:11:56;;;;;;;;;0.00;0.00;;;;;20.12;47.81;101247.53;5057104;28;45259;-56
2021/12/30 02:14:22;;;;;;;;;0.00;0.00;;;;;20.12;48.10;101247.53;5056860;28;45441;-56
2021/12/30 02:16:47;;;;;;;;;1.00;0.00;;;;;20.13;47.62;101253.63;5057085;28;45334;-55
2021/12/30 02:19:13;;;;;;;;;0.75;0.00;;;;;20.11;47.85;101258.16;5056685;28;46605;-55
2021/12/30 02:21:39;;;;;;;;;0.00;0.00;;;;;20.10;47.63;101259.06;5056563;28;45744;-54
2021/12/30 02:24:05;;;;;;;;;0.00;0.00;;;;;20.11;48.11;101261.63;5055618;28;45475;-55
2021/12/30 02:26:30;;;;;;;;;0.25;0.00;;;;;20.10;48.23;101265.19;5057134;28;45537;-56
2021/12/30 02:28:56;;;;;;;;;0.00;0.00;;;;;20.11;47.67;101273.94;5056914;28;45370;-55
2021/12/30 02:31:26;;;;;;;;;0.00;0.00;;;;;20.10;47.95;101277.50;5056751;28;45358;-56
2021/12/30 02:33:55;;;;;;;;;0.00;0.00;;;;;20.10;47.83;101282.75;5056807;28;45330;-55
2021/12/30 02:36:25;;;;;;;;;0.00;0.00;;;;;20.08;47.98;101275.78;5056851;28;45314;-56
2021/12/30 02:38:50;;;;;;;;;0.00;0.00;;;;;20.10;47.92;101285.38;5056592;28;45668;-56
2021/12/30 02:41:18;;;;;;;;;1.00;1.00;;;;;20.08;47.71;101281.03;5056392;28;45324;-54
2021/12/30 02:43:47;;;;;;;;;0.00;0.00;;;;;20.07;47.75;101287.22;5056633;28;45219;-56
2021/12/30 02:46:14;;;;;;;;;0.00;0.00;;;;;20.09;47.61;101289.78;5056763;28;45331;-56
2021/12/30 02:48:41;;;;;;;;;0.00;0.00;;;;;20.07;47.91;101292.50;5055342;28;46330;-56
2021/12/30 02:51:10;;;;;;;;;1.50;0.00;;;;;20.07;47.92;101295.13;5056216;28;45222;-54
2021/12/30 02:53:36;;;;;;;;;0.00;0.00;;;;;20.06;47.99;101296.03;5056474;28;45687;-54
2021/12/30 02:56:03;;;;;;;;;0.00;0.00;;;;;20.07;47.82;101305.66;5056531;28;45346;-56
2021/12/30 02:58:29;;;;;;;;;0.00;0.00;;;;;20.06;47.85;101311.00;5056498;28;47877;-55
2021/12/30 03:01:08;;;;;;;;;0.00;0.00;;;;;20.05;48.26;101312.75;5056379;28;45371;-54
2021/12/30 03:03:34;;;;;;;;;1.00;0.00;;;;;20.06;47.80;101311.84;5055033;28;45381;-56
2021/12/30 03:06:02;;;;;;;;;0.00;0.00;;;;;20.04;48.14;101305.78;5056784;28;45521;-55
2021/12/30 03:08:28;;;;;;;;;0.00;0.00;;;;;20.04;48.21;101300.53;5056143;28;46639;-55
2021/12/30 03:10:53;;;;;;;;;0.25;0.00;;;;;20.04;47.71;101297.88;5056106;28;45420;-56
2021/12/30 03:13:26;;;;;;;;;0.00;0.00;;;;;20.04;48.04;101297.88;5056289;28;45871;-56
2021/12/30 03:15:51;;;;;;;;;0.00;0.00;;;;;20.04;48.06;101292.63;5056348;28;45503;-55
2021/12/30 03:18:16;;;;;;;;;0.50;0.00;;;;;20.03;47.69;101293.53;5055920;28;46101;-55
2021/12/30 03:20:42;;;;;;;;;0.00;0.00;;;;;20.03;47.76;101288.28;5055930;28;45371;-56
2021/12/30 03:23:07;;;;;;;;;0.00;0.00;;;;;20.04;47.70;101297.03;5054884;28;45854;-55
2021/12/30 03:25:33;;;;;;;;;0.00;0.00;;;;;20.03;48.21;101296.19;5056325;28;45790;-56
2021/12/30 03:27:58;;;;;;;;;0.00;0.00;;;;;20.04;48.27;101297.88;5056114;28;46683;-54
2021/12/30 03:30:24;;;;;;;;;1.00;0.00;;;;;20.03;48.27;101297.97;5055715;28;45342;-55
2021/12/30 03:32:50;;;;;;;;;1.25;0.25;;;;;20.02;47.86;101304.16;5055913;28;45311;-55
2021/12/30 03:35:16;;;;;;;;;0.00;0.00;;;;;20.03;47.85;101305.88;5056132;28;45456;-56
2021/12/30 03:37:42;;;;;;;;;0.00;0.00;;;;;20.01;47.72;101303.28;5055746;28;45527;-56
2021/12/30 03:40:14;;;;;;;;;0.00;0.00;;;;;20.01;47.62;101305.91;5055705;28;45656;-54
2021/12/30 03:42:41;;;;;;;;;0.00;0.00;;;;;20.01;48.16;101302.44;5054652;28;45365;-55
2021/12/30 03:45:10;;;;;;;;;0.00;0.00;;;;;20.02;47.72;101298.88;5056043;28;45482;-54
2021/12/30 03:47:39;;;;;;;;;0.00;0.00;;;;;20.00;48.33;101301.59;5055503;28;48504;-53
2021/12/30 03:50:07;;;;;;;;;0.00;0.00;;;;;20.01;48.29;101313.81;5054316;28;45379;-54
2021/12/30 03:52:32;;;;;;;;;0.00;0.00;;;;;20.01;48.41;101303.28;5056063;28;45293;-56
2021/12/30 03:54:58;;;;;;;;;0.00;0.00;;;;;20.00;48.08;101295.47;5054720;28;45225;-54
2021/12/30 03:57:24;;;;;;;;;0.00;0.00;;;;;19.99;48.30;101299.91;5055416;28;46162;-55
2021/12/30 03:59:49;;;;;;;;;0.00;0.00;;;;;20.00;48.15;101291.06;5054550;28;45542;-55
2021/12/30 04:02:15;;;;;;;;;0.00;0.00;;;;;19.99;48.46;101288.50;5059053;28;45312;-55
2021/12/30 04:04:41;;;;;;;;;0.00;0.00;;;;;19.99;47.85;101296.38;5059170;28;45303;-54
2021/12/30 04:07:06;;;;;;;;;0.00;0.00;;;;;19.99;48.31;101294.63;5058552;28;46272;-56
2021/12/30 04:09:32;;;;;;;;;1.00;0.00;;;;;19.99;48.10;101284.09;5059118;28;45409;-55
2021/12/30 04:11:57;;;;;;;;;0.00;0.00;;;;;19.99;47.85;101297.25;5058914;28;45241;-55
2021/12/30 04:14:26;;;;;;;;;0.00;0.00;;;;;19.98;48.26;101289.41;5059085;28;45349;-55
2021/12/30 04:16:54;;;;;;;;;0.00;0.00;;;;;19.98;48.16;101300.81;5057363;28;46615;-54
2021/12/30 04:19:20;;;;;;;;;0.00;0.00;;;;;19.97;48.32;101291.22;5058688;28;45811;-56
2021/12/30 04:21:45;;;;;;;;;0.00;0.00;;;;;19.97;48.02;101299.09;5058778;28;45465;-54
2021/12/30 04:24:11;;;;;;;;;0.00;0.00;;;;;19.98;48.08;101300.81;5058457;28;45480;-57
2021/12/30 04:26:37;;;;;;;;;0.00;0.00;;;;;19.98;48.12;101297.31;5058403;28;45391;-54
2021/12/30 04:29:07;;;;;;;;;2.50;0.00;;;;;19.97;48.29;101288.56;5058719;28;45341;-55
2021/12/30 04:31:32;;;;;;;;;0.00;0.00;;;;;19.95;48.45;101287.78;5058969;28;45286;-55
2021/12/30 04:33:59;;;;;;;;;0.00;0.00;;;;;19.97;47.88;101282.44;5058751;28;45541;-54
2021/12/30 04:36:24;;;;;;;;;0.00;0.00;;;;;19.96;48.48;101289.50;5058310;28;46588;-55
2021/12/30 04:38:50;;;;;;;;;0.00;0.00;;;;;19.97;48.11;101291.22;5058365;28;45535;-53
2021/12/30 04:41:15;;;;;;;;;0.00;0.00;;;;;19.95;48.47;101285.16;5058475;28;45313;-55
2021/12/30 04:43:40;;;;;;;;;0.00;0.00;;;;;19.93;48.31;101287.00;5058605;28;45302;-55
2021/12/30 04:46:06;;;;;;;;;0.00;0.00;;;;;19.94;48.45;101291.34;5058434;28;45404;-56
2021/12/30 04:48:32;;;;;;;;;0.00;0.00;;;;;19.94;47.96;101293.97;5058235;28;45318;-54
2021/12/30 04:50:57;;;;;;;;;0.00;0.00;;;;;19.95;48.18;101300.94;5058452;28;45331;-55
2021/12/30 04:53:22;;;;;;;;;0.00;0.00;;;;;19.95;48.07;101298.31;5058532;28;45370;-53
2021/12/30 04:55:49;;;;;;;;;0.00;0.00;;;;;19.95;48.39;101308.84;5058050;28;45378;-55
2021/12/30 04:58:15;;;;;;;;;0.00;0.00;;;;;19.94;48.10;101309.75;5058275;28;45836;-54
2021/12/30 05:00:41;;;;;;;;;0.00;0.00;;;;;19.93;48.55;101308.03;5056869;28;45250;-54
2021/12/30 05:03:09;;;;;;;;;0.00;0.00;;;;;19.94;48.58;101315.03;5058631;28;45227;-55
2021/12/30 05:05:46;;;;;;;;;0.25;0.00;;;;;19.93;48.20;101315.94;5058348;28;46074;-56
2021/12/30 05:08:16;;;;;;;;;0.00;0.00;;;;;19.93;48.09;101322.06;5057605;28;45398;-54
2021/12/30 05:10:41;;;;;;;;;0.00;0.00;;;;;19.93;47.91;101326.47;5057931;28;45334;-54
2021/12/30 05:13:09;;;;;;;;;0.00;0.00;;;;;19.92;48.19;101343.16;5057482;28;45548;-55
2021/12/30 05:15:35;;;;;;;;;0.00;0.00;;;;;19.92;47.83;101345.78;5058001;28;45458;-56
2021/12/30 05:18:01;;;;;;;;;0.00;0.00;;;;;19.92;48.05;101349.31;5039802;28;45497;-56
2021/12/30 05:20:27;;;;;;;;;0.00;0.00;;;;;19.91;48.15;101346.72;5057751;28;45363;-56
2021/12/30 05:22:52;;;;;;;;;0.00;0.00;;;;;19.92;48.16;101348.44;5057895;28;45386;-55
2021/12/30 05:25:19;;;;;;;;;0.00;0.00;;;;;19.91;47.95;101334.44;5057596;28;46399;-54
2021/12/30 05:27:46;;;;;;;;;0.00;0.00;;;;;19.91;47.85;101341.47;5057613;28;45383;-56
2021/12/30 05:30:13;;;;;;;;;0.00;0.00;;;;;19.91;48.10;101333.56;5057643;28;45265;-55
2021/12/30 05:32:39;;;;;;;;;0.00;0.00;;;;;19.90;48.13;101332.72;5058081;28;45270;-54
2021/12/30 05:35:06;;;;;;;;;0.00;0.00;;;;;19.89;48.33;101331.00;5057699;28;46746;-56
2021/12/30 05:37:31;;;;;;;;;0.00;0.00;;;;;19.89;48.30;101344.16;5056754;28;45914;-56
2021/12/30 05:39:57;;;;;;;;;0.00;0.00;;;;;19.89;48.25;101351.22;5057468;28;45424;-55
2021/12/30 05:42:23;;;;;;;;;0.00;0.00;;;;;19.89;48.41;101357.31;5057691;28;45595;-54
2021/12/30 05:44:53;;;;;;;;;0.00;0.00;;;;;19.89;48.07;101367.00;5057336;28;46195;-53
2021/12/30 05:47:19;;;;;;;;;0.00;0.00;;;;;19.88;48.28;101376.66;5057337;28;45296;-54
2021/12/30 05:49:45;;;;;;;;;0.00;0.00;;;;;19.88;48.03;101379.28;5057412;28;45462;-56
2021/12/30 05:52:11;;;;;;;;;0.00;0.00;;;;;19.88;48.24;101370.56;5057785;28;45556;-56
2021/12/30 05:54:37;;;;;;;;;0.00;0.00;;;;;19.88;48.46;101378.44;5057319;28;46602;-54
2021/12/30 05:57:02;;;;;;;;;0.00;0.00;;;;;19.86;48.21;101369.75;5057201;28;45310;-56
2021/12/30 05:59:28;;;;;;;;;0.00;0.00;;;;;19.88;47.94;101375.81;5057242;28;45349;-56
2021/12/30 06:01:53;;;;;;;;;0.00;0.00;;;;;19.87;48.06;101374.09;5057543;28;45382;-55
2021/12/30 06:04:18;;;;;;;;;0.00;0.00;;;;;19.86;48.18;101390.81;5057077;28;45445;-55
2021/12/30 06:06:44;;;;;;;;;1.00;1.00;;;;;19.87;47.84;101389.88;5056946;28;45366;-54
2021/12/30 06:09:10;;;;;;;;;0.00;0.00;;;;;19.86;48.50;101393.44;5057052;28;45569;-55
2021/12/30 06:11:36;;;;;;;;;2.00;0.00;;;;;19.87;47.94;101393.34;5057469;28;45771;-55
2021/12/30 06:14:01;;;;;;;;;0.00;0.00;;;;;19.86;47.91;101396.91;5055550;28;47256;-56
2021/12/30 06:16:26;;;;;;;;;0.00;0.00;;;;;19.86;48.56;101404.78;5056856;28;45354;-56
2021/12/30 06:18:52;;;;;;;;;0.25;0.00;;;;;19.86;48.02;101404.78;5057155;28;45257;-54
2021/12/30 06:21:17;;;;;;;;;0.00;0.00;;;;;19.87;47.96;101403.03;5057003;28;45489;-56
2021/12/30 06:23:42;;;;;;;;;0.75;0.00;;;;;19.86;48.20;101403.97;5056595;28;46273;-56
2021/12/30 06:26:08;;;;;;;;;0.00;0.00;;;;;19.85;48.36;101404.84;5057262;28;45441;-55
2021/12/30 06:28:33;;;;;;;;;1.00;0.00;;;;;19.82;48.11;101391.81;5056775;28;45381;-55
2021/12/30 06:30:58;;;;;;;;;0.00;0.00;;;;;19.85;48.38;101394.31;5055681;28;45610;-56
2021/12/30 06:33:24;;;;;;;;;0.00;0.00;;;;;19.83;48.00;101389.13;5056486;28;46318;-56
2021/12/30 06:35:49;;;;;;;;;0.00;0.00;;;;;19.84;48.33;101392.59;5055281;28;45269;-55
2021/12/30 06:38:14;;;;;;;;;0.25;0.25;;;;;19.85;48.34;101396.94;5056795;28;45263;-54
2021/12/30 06:40:40;;;;;;;;;0.00;0.00;;;;;19.83;47.85;101399.66;5057209;28;45264;-56
2021/12/30 06:43:05;;;;;;;;;0.75;0.00;;;;;19.84;48.15;101405.75;5056458;28;46206;-55
2021/12/30 06:45:30;;;;;;;;;0.00;0.00;;;;;19.83;48.49;101406.69;5055199;28;45820;-53
2021/12/30 06:47:56;;;;;;;;;0.00;0.00;;;;;19.82;48.40;101411.09;5056264;28;45319;-55
2021/12/30 06:50:24;;;;;;;;;0.00;0.00;;;;;19.82;48.21;101408.47;5056514;28;45422;-56
2021/12/30 06:52:50;;;;;;;;;0.50;0.50;;;;;19.84;48.10;101414.53;5056273;28;46274;-55
2021/12/30 06:55:16;;;;;;;;;0.00;0.00;;;;;19.83;47.95;101409.31;5056385;28;45413;-54
2021/12/30 06:57:42;;;;;;;;;1.00;0.00;;;;;19.83;48.05;101415.44;5056832;28;45356;-55
2021/12/30 07:00:10;;;;;;;;;0.25;0.00;;;;;19.82;47.97;101416.34;5056561;28;45265;-55
2021/12/30 07:02:35;;;;;;;;;0.00;0.00;;;;;19.82;48.02;101423.38;5056212;28;46340;-56
2021/12/30 07:05:03;;;;;;;;;0.00;0.00;;;;;19.81;48.58;101421.66;5056101;28;45259;-54
2021/12/30 07:07:28;;;;;;;;;0.25;0.00;;;;;19.80;48.41;101417.31;5056197;28;45422;-54
2021/12/30 07:09:53;;;;;;;;;0.50;0.00;;;;;19.80;48.28;101425.22;5056292;28;45424;-56
2021/12/30 07:12:19;;;;;;;;;2.00;0.00;;;;;19.81;48.26;101426.94;5054741;28;46401;-55
2021/12/30 07:14:44;;;;;;;;;0.00;0.00;;;;;19.81;48.40;101426.94;5056344;28;45887;-54
2021/12/30 07:17:10;;;;;;;;;0.00;0.00;;;;;19.80;48.26;101435.72;5056535;28;45860;-56
2021/12/30 07:19:35;;;;;;;;;0.00;0.00;;;;;19.80;48.10;101435.72;5054950;28;45530;-54
2021/12/30 07:22:01;;;;;;;;;0.00;0.00;;;;;19.80;48.01;101446.25;5055840;28;46500;-56
2021/12/30 07:24:26;;;;;;;;;0.00;0.00;;;;;19.80;48.36;101449.75;5054527;28;45296;-56
2021/12/30 07:26:52;;;;;;;;;0.75;0.75;;;;;19.75;48.08;101447.31;5056015;28;45417;-54
2021/12/30 07:29:18;;;;;;;;;0.00;0.00;;;;;19.78;48.29;101455.09;5056217;28;45311;-54
2021/12/30 07:31:44;;;;;;;;;1.00;0.00;;;;;19.78;48.58;101452.47;5056138;28;45209;-55
2021/12/30 07:34:09;;;;;;;;;0.00;0.00;;;;;19.79;48.64;101448.03;5055797;28;45323;-54
2021/12/30 07:36:35;;;;;;;;;0.00;0.00;;;;;19.77;48.01;101440.22;5058802;28;45457;-55
2021/12/30 07:39:00;;;;;;;;;0.00;0.00;;;;;19.77;48.56;101448.13;5058334;28;45359;-55
2021/12/30 07:41:26;;;;;;;;;0.75;0.75;;;;;19.77;48.37;101453.38;5057955;28;47170;-54
2021/12/30 07:43:51;;;;;;;;;0.00;0.00;;;;;19.77;48.21;101461.28;5059339;28;45309;-54
2021/12/30 07:46:17;;;;;;;;;3.00;0.25;;;;;19.78;48.11;101455.09;5059402;28;45755;-56
2021/12/30 07:48:42;;;;;;;;;0.00;0.00;;;;;19.77;48.50;101447.25;5059630;28;45557;-55
2021/12/30 07:51:07;;;;;;;;;0.00;0.00;;;;;19.77;48.18;101453.38;5057554;28;46430;-54
2021/12/30 07:53:33;;;;;;;;;0.25;0.25;;;;;19.76;48.01;101451.66;5057879;28;45458;-54
2021/12/30 07:56:02;;;;;;;;;0.00;0.00;;;;;19.76;48.05;101456.94;5059314;28;45378;-55
2021/12/30 07:58:27;;;;;;;;;0.75;0.75;;;;;19.77;48.28;101471.78;5059401;28;45607;-56
2021/12/30 08:00:53;;;;;;;;;0.75;0.00;;;;;19.76;48.40;101474.47;5057724;28;47436;-55
2021/12/30 08:03:19;;;;;;;;;0.00;0.00;;;;;19.76;48.13;101477.97;5059029;28;45239;-54
2021/12/30 08:05:45;;;;;;;;;0.00;0.00;;;;;19.75;48.05;101489.41;5059652;28;45259;-57
2021/12/30 08:08:10;;;;;;;;;0.00;0.00;;;;;19.77;48.46;101497.22;5059023;28;45553;-54
2021/12/30 08:10:35;;;;;;;;;0.25;0.00;;;;;19.75;48.52;101499.94;5058863;28;45549;-53
2021/12/30 08:13:02;;;;;;;;;0.75;0.75;;;;;19.75;48.42;101507.81;5058896;28;45453;-55
2021/12/30 08:15:28;;;;;;;;;1.00;1.00;;;;;19.75;48.54;101509.56;5058763;28;45357;-53
2021/12/30 08:17:54;;;;;;;;;1.25;1.25;;;;;19.73;49.13;101519.34;5059072;28;45334;-55
2021/12/30 08:20:22;;;;;;;;;2.75;2.25;;;;;19.72;48.63;101522.88;5058862;28;47196;-53
2021/12/30 08:22:50;;;;;;;;;3.25;3.25;;;;;19.67;49.27;101520.44;5057685;28;45737;-54
2021/12/30 08:25:16;;;;;;;;;3.50;2.75;;;;;19.66;49.20;101528.38;5059239;28;45382;-53
2021/12/30 08:27:43;;;;;;;;;3.25;2.00;;;;;19.63;49.27;101529.34;5058911;28;45440;-55
2021/12/30 08:30:11;;;;;;;;;5.25;2.25;;;;;19.59;49.49;101528.63;5058539;28;46186;-54
2021/12/30 08:32:36;;;;;;;;;2.00;2.00;;;;;19.57;49.40;101534.84;5058600;28;45262;-53
2021/12/30 08:35:03;;;;;;;;;4.25;3.00;;;;;19.55;49.42;101539.34;5058762;28;45328;-53
2021/12/30 08:37:28;;;;;;;;;2.00;2.00;;;;;19.52;49.46;101545.56;5058878;28;45414;-55
2021/12/30 08:39:54;;;;;;;;;3.00;2.25;;;;;19.50;49.33;101546.53;5058421;28;46093;-54
2021/12/30 08:42:23;;;;;;;;;5.00;3.50;;;;;19.50;49.33;101554.41;5058371;28;45288;-53
2021/12/30 08:44:49;;;;;;;;;3.75;3.75;;;;;19.49;49.75;101557.97;5058801;28;45374;-54
2021/12/30 08:47:16;;;;;;;;;4.75;3.00;;;;;19.48;49.60;101557.13;5057838;28;45261;-55
2021/12/30 08:49:44;;;;;;;;;3.50;3.00;;;;;19.46;50.08;101557.16;5058076;28;46274;-55
2021/12/30 08:52:11;;;;;;;;;6.25;3.25;;;;;19.45;49.61;101558.13;5058133;28;45950;-56
2021/12/30 08:54:36;;;;;;;;;4.50;4.00;;;;;19.43;49.75;101559.94;5058238;28;45401;-55
2021/12/30 08:57:03;;;;;;;;;3.00;1.50;;;;;19.43;49.64;101559.94;5058355;28;45263;-53
2021/12/30 08:59:29;;;;;;;;;3.50;3.00;;;;;19.41;50.08;101555.63;5057826;28;46425;-53
2021/12/30 09:01:54;;;;;;;;;3.25;3.00;;;;;19.40;49.72;101552.16;5058191;28;45462;-53
2021/12/30 09:04:20;;;;;;;;;6.00;3.00;;;;;19.39;50.26;101552.22;5058209;28;45287;-54
2021/12/30 09:06:45;;;;;;;;;4.25;4.25;;;;;19.38;50.25;101551.34;5058414;28;45668;-53
2021/12/30 09:09:10;;;;;;;;;4.75;3.25;;;;;19.37;50.07;101554.91;5057600;28;45356;-53
2021/12/30 09:11:36;;;;;;;;;5.00;4.00;;;;;19.35;50.34;101556.72;5056643;28;45843;-53
2021/12/30 09:14:01;;;;;;;;;3.50;2.00;;;;;19.36;50.51;101560.22;5058031;28;45190;-54
2021/12/30 09:16:26;;;;;;;;;5.75;3.25;;;;;19.35;50.35;101563.78;5057972;28;45209;-52
2021/12/30 09:18:52;;;;;;;;;5.50;3.25;;;;;19.35;49.87;101561.97;5056416;28;46641;-54
2021/12/30 09:21:17;;;;;;;;;3.50;3.00;;;;;19.33;50.52;101561.22;5056763;28;45292;-52
2021/12/30 09:23:42;;;;;;;;;5.75;4.00;;;;;19.34;50.01;101568.19;5057854;28;45268;-54
2021/12/30 09:26:08;;;;;;;;;5.75;3.00;;;;;19.31;50.26;101570.94;5057882;28;45355;-54
2021/12/30 09:28:33;;;;;;;;;2.75;1.25;;;;;19.34;50.23;101575.19;5057349;28;46393;-54
2021/12/30 09:30:59;;;;;;;;;6.25;3.50;;;;;19.32;50.52;101580.53;5057219;28;45300;-53
2021/12/30 09:33:24;;;;;;;;;7.50;2.00;;;;;19.32;50.71;101588.41;5057460;28;45770;-52
2021/12/30 09:35:49;;;;;;;;;5.00;3.25;;;;;19.33;50.25;101584.00;5058052;28;45366;-52
2021/12/30 09:38:15;;;;;;;;;4.00;4.00;;;;;19.32;50.44;101593.66;5057314;28;46225;-51
2021/12/30 09:40:41;;;;;;;;;6.25;3.25;;;;;19.29;50.54;101583.25;5057579;28;45338;-52
2021/12/30 09:43:09;;;;;;;;;3.75;2.25;;;;;19.30;50.46;101588.44;5057417;28;45368;-53
2021/12/30 09:45:37;;;;;;;;;3.00;2.00;;;;;19.31;50.75;101594.59;5057574;28;45390;-52
2021/12/30 09:48:06;;;;;;;;;4.25;2.75;;;;;19.31;50.57;101592.78;5055871;28;47315;-53
2021/12/30 09:50:44;;;;;;;;;2.50;2.25;;;;;19.30;50.41;101590.22;5057110;28;45395;-54
2021/12/30 09:53:11;;;;;;;;;5.75;3.25;;;;;19.32;50.73;101588.41;5056170;28;45342;-55
2021/12/30 09:55:37;;;;;;;;;3.75;3.00;;;;;19.32;50.60;101585.78;5056242;28;45417;-54
2021/12/30 09:58:04;;;;;;;;;3.25;3.25;;;;;19.31;50.16;101587.53;5056638;28;46659;-55
2021/12/30 10:00:30;;;;;;;;;3.50;2.75;;;;;19.33;51.02;101590.13;5057305;28;45694;-52
2021/12/30 10:02:55;;;;;;;;;4.00;3.00;;;;;19.31;50.79;101590.16;5057190;28;45326;-54
2021/12/30 10:05:25;;;;;;;;;2.75;2.00;;;;;19.32;50.44;101593.66;5057636;28;45444;-54
2021/12/30 10:08:13;;;;;;;;;4.75;2.00;;;;;19.34;50.46;101596.22;5056904;28;45607;-50
2021/12/30 10:10:40;;;;;;;;;3.50;2.25;;;;;19.34;50.86;101597.09;5055496;28;45202;-54
2021/12/30 10:13:17;;;;;;;;;2.25;2.25;;;;;19.35;50.72;101606.66;5056965;28;45484;-53
2021/12/30 10:15:44;;;;;;;;;2.00;2.00;;;;;19.36;50.51;101600.50;5057199;28;45815;-53
2021/12/30 10:18:10;;;;;;;;;3.00;3.00;;;;;19.36;50.90;101599.66;5056700;28;45488;-50
2021/12/30 10:20:39;;;;;;;;;2.75;2.75;;;;;19.35;50.92;101596.16;5056732;28;45294;-54
2021/12/30 10:23:31;;;;;;;;;2.00;2.00;;;;;19.37;51.04;101596.13;5056881;28;45429;-55
2021/12/30 10:25:58;;;;;;;;;5.75;3.75;;;;;19.37;50.69;101594.34;5053213;28;45181;-54
2021/12/30 10:28:27;;;;;;;;;2.50;2.50;;;;;19.37;50.76;101596.97;5056598;28;46848;-54
2021/12/30 10:30:56;;;;;;;;;5.50;4.25;;;;;19.37;50.72;101586.44;5056829;28;45394;-52
2021/12/30 10:33:24;;;;;;;;;3.50;3.50;;;;;19.35;50.80;101587.44;5056988;28;45242;-51
2021/12/30 10:35:50;;;;;;;;;6.50;3.25;;;;;19.35;50.64;101588.28;5057340;28;45241;-53
2021/12/30 10:38:16;;;;;;;;;2.75;2.75;;;;;19.35;51.11;101593.53;5056462;28;45722;-50
2021/12/30 10:40:50;;;;;;;;;4.75;3.00;;;;;19.37;51.17;101593.50;5056279;28;45417;-54
2021/12/30 10:43:20;;;;;;;;;2.50;1.00;;;;;19.37;50.89;101607.47;5056625;28;45319;-52
2021/12/30 10:46:13;;;;;;;;;3.00;2.00;;;;;19.39;51.05;101604.81;5056718;28;45201;-50
2021/12/30 10:49:31;;;;;;;;;5.00;3.25;;;;;19.35;50.86;101592.69;5056441;28;45791;-53
2021/12/30 10:51:57;;;;;;;;;2.75;2.75;;;;;19.37;50.57;101591.69;5000464;28;46104;-53
2021/12/30 10:54:28;;;;;;;;;4.25;3.00;;;;;19.35;51.22;101588.28;5056910;28;45316;-54
2021/12/30 10:56:55;;;;;;;;;3.75;2.50;;;;;19.37;51.12;101593.50;5056560;28;45349;-54
2021/12/30 10:59:25;;;;;;;;;4.00;3.00;;;;;19.36;50.96;101589.97;5056632;28;46099;-53
2021/12/30 11:02:09;;;;;;;;;3.00;2.25;;;;;19.36;50.88;101584.72;5055200;28;45347;-54
2021/12/30 11:04:46;;;;;;;;;2.00;2.00;;;;;19.35;50.94;101580.38;5056497;28;45270;-48
2021/12/30 11:07:16;;;;;;;;;5.75;2.25;;;;;19.36;50.74;101579.47;5054958;28;45500;-51
2021/12/30 11:09:59;;;;;;;;;2.75;1.50;;;;;19.38;50.61;101574.19;5056186;28;46396;-53
2021/12/30 11:12:29;;;;;;;;;4.00;2.00;;;;;19.38;51.10;101588.16;5059901;28;45903;-51
2021/12/30 11:14:55;;;;;;;;;3.00;2.25;;;;;19.42;50.87;101588.91;5059783;28;45200;-52
2021/12/30 11:17:29;;;;;;;;;3.00;3.00;;;;;19.42;50.71;101589.78;5060096;28;45594;-47
2021/12/30 11:19:59;;;;;;;;;4.75;3.00;;;;;19.45;50.67;101600.16;5059456;28;46237;-54
2021/12/30 11:22:29;;;;;;;;;2.00;2.00;;;;;19.45;50.90;101599.31;5059885;28;45329;-48
2021/12/30 11:24:58;;;;;;;;;2.00;2.00;;;;;19.46;51.06;101601.00;5059760;28;45417;-50